sensor_id;sensor_type;location;lat;lon;timestamp;P1;durP1;ratioP1;P2;durP2;ratioP2
11111;SDS011;5609;49.466;8.468;2024-03-08T00:01:38;16.97;;;14.63;;
11111;SDS011;5609;49.466;8.468;2024-03-08T00:04:05;17.20;;;14.93;;
11111;SDS011;5609;49.466;8.468;2024-03-08T00:06:33;17.87;;;15.00;;
11111;SDS011;5609;49.466;8.468;2024-03-08T00:09:00;16.63;;;14.77;;
11111;SDS011;5609;49.466;8.468;2024-03-08T00:11:29;17.77;;;15.60;;
11111;SDS011;5609;49.466;8.468;2024-03-08T00:13:56;17.27;;;14.70;;
11111;SDS011;5609;49.466;8.468;2024-03-08T00:16:23;18.60;;;15.17;;
11111;SDS011;5609;49.466;8.468;2024-03-08T00:18:51;19.67;;;15.87;;
11111;SDS011;5609;49.466;8.468;2024-03-08T00:21:18;19.57;;;15.53;;
11111;SDS011;5609;49.466;8.468;2024-03-08T00:23:45;20.63;;;16.53;;
11111;SDS011;5609;49.466;8.468;2024-03-08T00:26:12;19.47;;;16.33;;
11111;SDS011;5609;49.466;8.468;2024-03-08T00:28:39;18.90;;;16.33;;
11111;SDS011;5609;49.466;8.468;2024-03-08T00:31:06;19.87;;;15.33;;
11111;SDS011;5609;49.466;8.468;2024-03-08T00:33:42;18.73;;;14.73;;
11111;SDS011;5609;49.466;8.468;2024-03-08T00:36:11;18.63;;;15.53;;
11111;SDS011;5609;49.466;8.468;2024-03-08T00:38:38;18.17;;;14.87;;
11111;SDS011;5609;49.466;8.468;2024-03-08T00:41:04;17.03;;;14.40;;
11111;SDS011;5609;49.466;8.468;2024-03-08T00:43:32;16.53;;;14.73;;
11111;SDS011;5609;49.466;8.468;2024-03-08T00:45:59;16.83;;;14.07;;
11111;SDS011;5609;49.466;8.468;2024-03-08T00:48:27;16.73;;;14.93;;
11111;SDS011;5609;49.466;8.468;2024-03-08T00:50:54;17.63;;;15.23;;
11111;SDS011;5609;49.466;8.468;2024-03-08T00:53:22;19.03;;;15.30;;
11111;SDS011;5609;49.466;8.468;2024-03-08T00:55:50;18.13;;;14.87;;
11111;SDS011;5609;49.466;8.468;2024-03-08T00:58:17;17.70;;;14.97;;
11111;SDS011;5609;49.466;8.468;2024-03-08T01:00:44;19.30;;;14.87;;
11111;SDS011;5609;49.466;8.468;2024-03-08T01:03:11;18.57;;;14.77;;
11111;SDS011;5609;49.466;8.468;2024-03-08T01:05:38;16.73;;;14.67;;
11111;SDS011;5609;49.466;8.468;2024-03-08T01:08:05;18.10;;;14.93;;
11111;SDS011;5609;49.466;8.468;2024-03-08T01:10:34;17.70;;;14.73;;
11111;SDS011;5609;49.466;8.468;2024-03-08T01:13:00;19.47;;;15.07;;
11111;SDS011;5609;49.466;8.468;2024-03-08T01:15:27;18.40;;;14.80;;
11111;SDS011;5609;49.466;8.468;2024-03-08T01:17:55;17.30;;;14.43;;
11111;SDS011;5609;49.466;8.468;2024-03-08T01:20:22;16.93;;;15.10;;
11111;SDS011;5609;49.466;8.468;2024-03-08T01:22:50;16.50;;;14.60;;
11111;SDS011;5609;49.466;8.468;2024-03-08T01:25:24;16.50;;;14.40;;
11111;SDS011;5609;49.466;8.468;2024-03-08T01:27:52;18.23;;;14.17;;
11111;SDS011;5609;49.466;8.468;2024-03-08T01:30:19;17.17;;;14.67;;
11111;SDS011;5609;49.466;8.468;2024-03-08T01:32:46;17.27;;;14.73;;
11111;SDS011;5609;49.466;8.468;2024-03-08T01:35:14;18.37;;;15.47;;
11111;SDS011;5609;49.466;8.468;2024-03-08T01:37:41;17.13;;;14.27;;
11111;SDS011;5609;49.466;8.468;2024-03-08T01:40:08;18.53;;;15.53;;
11111;SDS011;5609;49.466;8.468;2024-03-08T01:42:35;17.13;;;15.00;;
11111;SDS011;5609;49.466;8.468;2024-03-08T01:45:05;17.07;;;14.87;;
11111;SDS011;5609;49.466;8.468;2024-03-08T01:47:32;17.00;;;14.87;;
11111;SDS011;5609;49.466;8.468;2024-03-08T01:50:00;16.73;;;14.27;;
11111;SDS011;5609;49.466;8.468;2024-03-08T01:52:29;18.00;;;14.80;;
11111;SDS011;5609;49.466;8.468;2024-03-08T01:54:58;17.17;;;14.43;;
11111;SDS011;5609;49.466;8.468;2024-03-08T01:57:26;17.23;;;14.43;;
11111;SDS011;5609;49.466;8.468;2024-03-08T01:59:54;16.23;;;14.47;;
11111;SDS011;5609;49.466;8.468;2024-03-08T02:02:23;16.67;;;14.90;;
11111;SDS011;5609;49.466;8.468;2024-03-08T02:04:52;18.70;;;14.87;;
11111;SDS011;5609;49.466;8.468;2024-03-08T02:07:21;16.70;;;14.93;;
11111;SDS011;5609;49.466;8.468;2024-03-08T02:09:48;17.00;;;14.43;;
11111;SDS011;5609;49.466;8.468;2024-03-08T02:12:16;19.17;;;15.10;;
11111;SDS011;5609;49.466;8.468;2024-03-08T02:14:45;17.87;;;14.90;;
11111;SDS011;5609;49.466;8.468;2024-03-08T02:17:12;17.40;;;14.73;;
11111;SDS011;5609;49.466;8.468;2024-03-08T02:19:42;18.67;;;15.07;;
11111;SDS011;5609;49.466;8.468;2024-03-08T02:22:14;17.50;;;14.80;;
11111;SDS011;5609;49.466;8.468;2024-03-08T02:24:43;17.90;;;15.23;;
11111;SDS011;5609;49.466;8.468;2024-03-08T02:27:11;16.83;;;14.60;;
11111;SDS011;5609;49.466;8.468;2024-03-08T02:29:38;17.93;;;14.53;;
11111;SDS011;5609;49.466;8.468;2024-03-08T02:32:06;17.13;;;13.43;;
11111;SDS011;5609;49.466;8.468;2024-03-08T02:34:33;17.20;;;14.63;;
11111;SDS011;5609;49.466;8.468;2024-03-08T02:36:59;18.20;;;14.73;;
11111;SDS011;5609;49.466;8.468;2024-03-08T02:39:35;19.33;;;14.47;;
11111;SDS011;5609;49.466;8.468;2024-03-08T02:42:01;15.57;;;13.87;;
11111;SDS011;5609;49.466;8.468;2024-03-08T02:44:28;16.47;;;13.63;;
11111;SDS011;5609;49.466;8.468;2024-03-08T02:46:56;15.17;;;13.57;;
11111;SDS011;5609;49.466;8.468;2024-03-08T02:49:24;15.43;;;13.73;;
11111;SDS011;5609;49.466;8.468;2024-03-08T02:51:51;15.27;;;13.37;;
11111;SDS011;5609;49.466;8.468;2024-03-08T02:54:18;16.10;;;13.20;;
11111;SDS011;5609;49.466;8.468;2024-03-08T02:56:47;16.13;;;13.50;;
11111;SDS011;5609;49.466;8.468;2024-03-08T02:59:16;15.77;;;13.47;;
11111;SDS011;5609;49.466;8.468;2024-03-08T03:01:44;15.93;;;13.37;;
11111;SDS011;5609;49.466;8.468;2024-03-08T03:04:10;16.33;;;13.57;;
11111;SDS011;5609;49.466;8.468;2024-03-08T03:06:38;14.87;;;13.07;;
11111;SDS011;5609;49.466;8.468;2024-03-08T03:09:05;15.13;;;13.07;;
11111;SDS011;5609;49.466;8.468;2024-03-08T03:11:35;16.27;;;13.33;;
11111;SDS011;5609;49.466;8.468;2024-03-08T03:14:04;16.47;;;13.77;;
11111;SDS011;5609;49.466;8.468;2024-03-08T03:16:32;14.67;;;13.10;;
11111;SDS011;5609;49.466;8.468;2024-03-08T03:19:01;17.43;;;14.40;;
11111;SDS011;5609;49.466;8.468;2024-03-08T03:21:30;16.07;;;13.87;;
11111;SDS011;5609;49.466;8.468;2024-03-08T03:23:57;14.57;;;13.03;;
11111;SDS011;5609;49.466;8.468;2024-03-08T03:26:24;17.70;;;13.93;;
11111;SDS011;5609;49.466;8.468;2024-03-08T03:28:51;16.50;;;13.63;;
11111;SDS011;5609;49.466;8.468;2024-03-08T03:31:20;15.90;;;14.20;;
11111;SDS011;5609;49.466;8.468;2024-03-08T03:33:49;16.83;;;14.00;;
11111;SDS011;5609;49.466;8.468;2024-03-08T03:36:17;16.97;;;14.53;;
11111;SDS011;5609;49.466;8.468;2024-03-08T03:38:45;17.33;;;13.30;;
11111;SDS011;5609;49.466;8.468;2024-03-08T03:41:11;16.10;;;13.73;;
11111;SDS011;5609;49.466;8.468;2024-03-08T03:43:39;15.87;;;13.40;;
11111;SDS011;5609;49.466;8.468;2024-03-08T03:46:06;15.13;;;12.93;;
11111;SDS011;5609;49.466;8.468;2024-03-08T03:48:37;16.63;;;13.87;;
11111;SDS011;5609;49.466;8.468;2024-03-08T03:51:03;16.10;;;13.70;;
11111;SDS011;5609;49.466;8.468;2024-03-08T03:53:30;14.93;;;12.67;;
11111;SDS011;5609;49.466;8.468;2024-03-08T03:55:58;16.93;;;14.03;;
11111;SDS011;5609;49.466;8.468;2024-03-08T03:58:25;17.43;;;13.83;;
11111;SDS011;5609;49.466;8.468;2024-03-08T04:00:52;16.73;;;13.83;;
11111;SDS011;5609;49.466;8.468;2024-03-08T04:03:19;15.60;;;13.17;;
11111;SDS011;5609;49.466;8.468;2024-03-08T04:05:48;17.73;;;14.53;;
11111;SDS011;5609;49.466;8.468;2024-03-08T04:08:16;18.83;;;14.20;;
11111;SDS011;5609;49.466;8.468;2024-03-08T04:10:42;17.70;;;14.73;;
11111;SDS011;5609;49.466;8.468;2024-03-08T04:13:09;18.30;;;14.53;;
11111;SDS011;5609;49.466;8.468;2024-03-08T04:15:36;17.97;;;14.47;;
11111;SDS011;5609;49.466;8.468;2024-03-08T04:18:03;15.93;;;13.43;;
11111;SDS011;5609;49.466;8.468;2024-03-08T04:20:30;16.47;;;13.93;;
11111;SDS011;5609;49.466;8.468;2024-03-08T04:22:58;17.17;;;14.23;;
11111;SDS011;5609;49.466;8.468;2024-03-08T04:25:25;18.80;;;15.30;;
11111;SDS011;5609;49.466;8.468;2024-03-08T04:27:55;15.67;;;13.97;;
11111;SDS011;5609;49.466;8.468;2024-03-08T04:30:22;19.67;;;15.23;;
11111;SDS011;5609;49.466;8.468;2024-03-08T04:32:49;18.13;;;15.17;;
11111;SDS011;5609;49.466;8.468;2024-03-08T04:35:16;16.63;;;13.77;;
11111;SDS011;5609;49.466;8.468;2024-03-08T04:37:46;16.50;;;13.90;;
11111;SDS011;5609;49.466;8.468;2024-03-08T04:40:14;16.60;;;14.53;;
11111;SDS011;5609;49.466;8.468;2024-03-08T04:42:41;16.03;;;14.20;;
11111;SDS011;5609;49.466;8.468;2024-03-08T04:45:09;17.00;;;14.33;;
11111;SDS011;5609;49.466;8.468;2024-03-08T04:47:37;18.33;;;14.13;;
11111;SDS011;5609;49.466;8.468;2024-03-08T04:50:06;17.20;;;13.90;;
11111;SDS011;5609;49.466;8.468;2024-03-08T04:52:35;18.37;;;14.57;;
11111;SDS011;5609;49.466;8.468;2024-03-08T04:55:02;17.40;;;14.67;;
11111;SDS011;5609;49.466;8.468;2024-03-08T04:57:34;16.87;;;14.33;;
11111;SDS011;5609;49.466;8.468;2024-03-08T05:00:00;17.40;;;13.93;;
11111;SDS011;5609;49.466;8.468;2024-03-08T05:02:29;17.00;;;14.40;;
11111;SDS011;5609;49.466;8.468;2024-03-08T05:04:58;18.00;;;15.00;;
11111;SDS011;5609;49.466;8.468;2024-03-08T05:07:25;17.50;;;15.00;;
11111;SDS011;5609;49.466;8.468;2024-03-08T05:09:52;17.17;;;14.27;;
11111;SDS011;5609;49.466;8.468;2024-03-08T05:12:19;16.67;;;14.30;;
11111;SDS011;5609;49.466;8.468;2024-03-08T05:14:48;17.57;;;14.40;;
11111;SDS011;5609;49.466;8.468;2024-03-08T05:17:15;19.17;;;14.87;;
11111;SDS011;5609;49.466;8.468;2024-03-08T05:19:42;18.77;;;15.43;;
11111;SDS011;5609;49.466;8.468;2024-03-08T05:22:09;17.60;;;14.37;;
11111;SDS011;5609;49.466;8.468;2024-03-08T05:24:36;16.57;;;14.37;;
11111;SDS011;5609;49.466;8.468;2024-03-08T05:27:03;18.07;;;15.27;;
11111;SDS011;5609;49.466;8.468;2024-03-08T05:29:30;19.57;;;15.07;;
11111;SDS011;5609;49.466;8.468;2024-03-08T05:31:58;16.93;;;13.83;;
11111;SDS011;5609;49.466;8.468;2024-03-08T05:34:25;16.67;;;14.63;;
11111;SDS011;5609;49.466;8.468;2024-03-08T05:36:53;19.47;;;15.13;;
11111;SDS011;5609;49.466;8.468;2024-03-08T05:39:20;18.57;;;15.03;;
11111;SDS011;5609;49.466;8.468;2024-03-08T05:41:48;17.10;;;14.87;;
11111;SDS011;5609;49.466;8.468;2024-03-08T05:44:15;17.50;;;14.43;;
11111;SDS011;5609;49.466;8.468;2024-03-08T05:46:43;18.63;;;14.70;;
11111;SDS011;5609;49.466;8.468;2024-03-08T05:49:11;17.60;;;14.77;;
11111;SDS011;5609;49.466;8.468;2024-03-08T05:51:38;17.60;;;14.83;;
11111;SDS011;5609;49.466;8.468;2024-03-08T05:54:06;17.20;;;14.77;;
11111;SDS011;5609;49.466;8.468;2024-03-08T05:56:35;17.77;;;15.07;;
11111;SDS011;5609;49.466;8.468;2024-03-08T05:59:03;19.27;;;15.63;;
11111;SDS011;5609;49.466;8.468;2024-03-08T06:01:30;20.97;;;15.70;;
11111;SDS011;5609;49.466;8.468;2024-03-08T06:04:01;20.57;;;15.30;;
11111;SDS011;5609;49.466;8.468;2024-03-08T06:06:30;18.77;;;15.80;;
11111;SDS011;5609;49.466;8.468;2024-03-08T06:08:58;20.10;;;15.83;;
11111;SDS011;5609;49.466;8.468;2024-03-08T06:11:29;17.73;;;15.17;;
11111;SDS011;5609;49.466;8.468;2024-03-08T06:13:56;21.57;;;15.67;;
11111;SDS011;5609;49.466;8.468;2024-03-08T06:16:25;18.97;;;15.60;;
11111;SDS011;5609;49.466;8.468;2024-03-08T06:18:55;18.10;;;15.67;;
11111;SDS011;5609;49.466;8.468;2024-03-08T06:21:22;18.80;;;16.10;;
11111;SDS011;5609;49.466;8.468;2024-03-08T06:23:52;18.93;;;15.17;;
11111;SDS011;5609;49.466;8.468;2024-03-08T06:26:22;17.90;;;15.10;;
11111;SDS011;5609;49.466;8.468;2024-03-08T06:28:57;17.97;;;15.43;;
11111;SDS011;5609;49.466;8.468;2024-03-08T06:31:24;18.77;;;15.57;;
11111;SDS011;5609;49.466;8.468;2024-03-08T06:33:52;19.33;;;15.90;;
11111;SDS011;5609;49.466;8.468;2024-03-08T06:36:23;18.40;;;15.40;;
11111;SDS011;5609;49.466;8.468;2024-03-08T06:38:50;18.43;;;15.60;;
11111;SDS011;5609;49.466;8.468;2024-03-08T06:41:19;19.47;;;15.67;;
11111;SDS011;5609;49.466;8.468;2024-03-08T06:43:46;18.13;;;15.30;;
11111;SDS011;5609;49.466;8.468;2024-03-08T06:46:16;19.70;;;16.23;;
11111;SDS011;5609;49.466;8.468;2024-03-08T06:48:45;19.07;;;16.23;;
11111;SDS011;5609;49.466;8.468;2024-03-08T06:51:12;20.50;;;15.93;;
11111;SDS011;5609;49.466;8.468;2024-03-08T06:53:41;18.80;;;16.00;;
11111;SDS011;5609;49.466;8.468;2024-03-08T06:56:11;16.87;;;15.07;;
11111;SDS011;5609;49.466;8.468;2024-03-08T06:58:38;18.57;;;15.57;;
11111;SDS011;5609;49.466;8.468;2024-03-08T07:01:05;18.87;;;15.93;;
11111;SDS011;5609;49.466;8.468;2024-03-08T07:03:32;18.73;;;16.60;;
11111;SDS011;5609;49.466;8.468;2024-03-08T07:06:00;18.60;;;15.83;;
11111;SDS011;5609;49.466;8.468;2024-03-08T07:08:27;19.23;;;16.23;;
11111;SDS011;5609;49.466;8.468;2024-03-08T07:11:02;18.43;;;15.90;;
11111;SDS011;5609;49.466;8.468;2024-03-08T07:13:30;17.90;;;15.43;;
11111;SDS011;5609;49.466;8.468;2024-03-08T07:15:58;18.77;;;15.50;;
11111;SDS011;5609;49.466;8.468;2024-03-08T07:18:25;18.07;;;15.23;;
11111;SDS011;5609;49.466;8.468;2024-03-08T07:20:54;18.87;;;15.90;;
11111;SDS011;5609;49.466;8.468;2024-03-08T07:23:21;16.97;;;14.90;;
11111;SDS011;5609;49.466;8.468;2024-03-08T07:26:02;17.47;;;15.03;;
11111;SDS011;5609;49.466;8.468;2024-03-08T07:28:31;17.37;;;14.93;;
11111;SDS011;5609;49.466;8.468;2024-03-08T07:30:58;17.93;;;15.67;;
11111;SDS011;5609;49.466;8.468;2024-03-08T07:33:42;18.07;;;15.40;;
11111;SDS011;5609;49.466;8.468;2024-03-08T07:36:09;19.67;;;16.50;;
11111;SDS011;5609;49.466;8.468;2024-03-08T07:38:36;17.47;;;15.33;;
11111;SDS011;5609;49.466;8.468;2024-03-08T07:41:11;18.00;;;14.60;;
11111;SDS011;5609;49.466;8.468;2024-03-08T07:43:40;19.03;;;16.23;;
11111;SDS011;5609;49.466;8.468;2024-03-08T07:46:07;19.37;;;15.53;;
11111;SDS011;5609;49.466;8.468;2024-03-08T07:48:35;18.13;;;15.77;;
11111;SDS011;5609;49.466;8.468;2024-03-08T07:51:03;18.33;;;15.47;;
11111;SDS011;5609;49.466;8.468;2024-03-08T07:53:30;18.60;;;15.43;;
11111;SDS011;5609;49.466;8.468;2024-03-08T07:55:58;17.20;;;15.17;;
11111;SDS011;5609;49.466;8.468;2024-03-08T07:58:26;17.70;;;15.40;;
11111;SDS011;5609;49.466;8.468;2024-03-08T08:00:55;20.57;;;15.33;;
11111;SDS011;5609;49.466;8.468;2024-03-08T08:03:22;16.87;;;14.73;;
11111;SDS011;5609;49.466;8.468;2024-03-08T08:05:50;18.50;;;15.73;;
11111;SDS011;5609;49.466;8.468;2024-03-08T08:08:19;19.30;;;15.90;;
11111;SDS011;5609;49.466;8.468;2024-03-08T08:10:46;19.67;;;15.27;;
11111;SDS011;5609;49.466;8.468;2024-03-08T08:13:13;17.20;;;15.13;;
11111;SDS011;5609;49.466;8.468;2024-03-08T08:15:41;17.60;;;15.17;;
11111;SDS011;5609;49.466;8.468;2024-03-08T08:18:12;17.10;;;15.10;;
11111;SDS011;5609;49.466;8.468;2024-03-08T08:20:39;17.67;;;14.87;;
11111;SDS011;5609;49.466;8.468;2024-03-08T08:23:06;17.80;;;15.37;;
11111;SDS011;5609;49.466;8.468;2024-03-08T08:25:35;17.10;;;14.97;;
11111;SDS011;5609;49.466;8.468;2024-03-08T08:28:03;16.17;;;13.83;;
11111;SDS011;5609;49.466;8.468;2024-03-08T08:30:30;16.07;;;14.37;;
11111;SDS011;5609;49.466;8.468;2024-03-08T08:32:58;16.87;;;14.90;;
11111;SDS011;5609;49.466;8.468;2024-03-08T08:35:27;16.73;;;14.33;;
11111;SDS011;5609;49.466;8.468;2024-03-08T08:37:55;16.27;;;14.23;;
11111;SDS011;5609;49.466;8.468;2024-03-08T08:40:23;17.23;;;14.63;;
11111;SDS011;5609;49.466;8.468;2024-03-08T08:42:51;16.53;;;14.80;;
11111;SDS011;5609;49.466;8.468;2024-03-08T08:45:18;16.90;;;14.70;;
11111;SDS011;5609;49.466;8.468;2024-03-08T08:47:45;16.30;;;14.40;;
11111;SDS011;5609;49.466;8.468;2024-03-08T08:50:14;16.47;;;13.90;;
11111;SDS011;5609;49.466;8.468;2024-03-08T08:52:43;17.23;;;14.80;;
11111;SDS011;5609;49.466;8.468;2024-03-08T08:55:09;16.70;;;14.90;;
11111;SDS011;5609;49.466;8.468;2024-03-08T08:57:40;16.40;;;14.57;;
11111;SDS011;5609;49.466;8.468;2024-03-08T09:00:08;15.57;;;13.77;;
11111;SDS011;5609;49.466;8.468;2024-03-08T09:02:39;16.50;;;14.50;;
11111;SDS011;5609;49.466;8.468;2024-03-08T09:05:06;16.80;;;14.90;;
11111;SDS011;5609;49.466;8.468;2024-03-08T09:07:33;16.83;;;14.53;;
11111;SDS011;5609;49.466;8.468;2024-03-08T09:10:05;18.50;;;15.13;;
11111;SDS011;5609;49.466;8.468;2024-03-08T09:12:34;16.53;;;14.73;;
11111;SDS011;5609;49.466;8.468;2024-03-08T09:15:01;16.30;;;14.60;;
11111;SDS011;5609;49.466;8.468;2024-03-08T09:17:29;18.33;;;14.73;;
11111;SDS011;5609;49.466;8.468;2024-03-08T09:19:58;15.87;;;14.17;;
11111;SDS011;5609;49.466;8.468;2024-03-08T09:22:25;17.33;;;14.80;;
11111;SDS011;5609;49.466;8.468;2024-03-08T09:24:52;17.23;;;13.97;;
11111;SDS011;5609;49.466;8.468;2024-03-08T09:27:20;15.67;;;13.97;;
11111;SDS011;5609;49.466;8.468;2024-03-08T09:29:47;15.77;;;14.07;;
11111;SDS011;5609;49.466;8.468;2024-03-08T09:32:14;15.87;;;14.17;;
11111;SDS011;5609;49.466;8.468;2024-03-08T09:34:41;17.93;;;15.17;;
11111;SDS011;5609;49.466;8.468;2024-03-08T09:37:08;16.23;;;14.53;;
11111;SDS011;5609;49.466;8.468;2024-03-08T09:39:35;17.00;;;14.60;;
11111;SDS011;5609;49.466;8.468;2024-03-08T09:42:03;16.87;;;14.17;;
11111;SDS011;5609;49.466;8.468;2024-03-08T09:44:32;18.03;;;15.07;;
11111;SDS011;5609;49.466;8.468;2024-03-08T09:47:00;17.37;;;15.20;;
11111;SDS011;5609;49.466;8.468;2024-03-08T09:49:27;15.60;;;14.00;;
11111;SDS011;5609;49.466;8.468;2024-03-08T09:51:55;15.90;;;14.20;;
11111;SDS011;5609;49.466;8.468;2024-03-08T09:54:22;16.33;;;14.67;;
11111;SDS011;5609;49.466;8.468;2024-03-08T09:56:50;16.33;;;14.43;;
11111;SDS011;5609;49.466;8.468;2024-03-08T09:59:18;15.77;;;14.00;;
11111;SDS011;5609;49.466;8.468;2024-03-08T10:02:02;16.03;;;14.27;;
11111;SDS011;5609;49.466;8.468;2024-03-08T10:04:30;17.47;;;15.17;;
11111;SDS011;5609;49.466;8.468;2024-03-08T10:06:57;17.90;;;13.63;;
11111;SDS011;5609;49.466;8.468;2024-03-08T10:09:25;16.33;;;14.73;;
11111;SDS011;5609;49.466;8.468;2024-03-08T10:11:53;15.67;;;14.07;;
11111;SDS011;5609;49.466;8.468;2024-03-08T10:14:22;16.83;;;14.43;;
11111;SDS011;5609;49.466;8.468;2024-03-08T10:16:51;15.23;;;13.70;;
11111;SDS011;5609;49.466;8.468;2024-03-08T10:19:20;16.50;;;14.13;;
11111;SDS011;5609;49.466;8.468;2024-03-08T10:21:48;15.93;;;14.23;;
11111;SDS011;5609;49.466;8.468;2024-03-08T10:24:17;15.77;;;14.03;;
11111;SDS011;5609;49.466;8.468;2024-03-08T10:26:44;15.53;;;13.83;;
11111;SDS011;5609;49.466;8.468;2024-03-08T10:29:14;15.73;;;14.03;;
11111;SDS011;5609;49.466;8.468;2024-03-08T10:31:42;15.60;;;14.00;;
11111;SDS011;5609;49.466;8.468;2024-03-08T10:34:11;16.20;;;14.13;;
11111;SDS011;5609;49.466;8.468;2024-03-08T10:36:40;15.40;;;13.90;;
11111;SDS011;5609;49.466;8.468;2024-03-08T10:39:09;15.67;;;14.07;;
11111;SDS011;5609;49.466;8.468;2024-03-08T10:41:46;15.20;;;13.60;;
11111;SDS011;5609;49.466;8.468;2024-03-08T10:44:23;15.30;;;13.70;;
11111;SDS011;5609;49.466;8.468;2024-03-08T10:47:01;14.87;;;13.37;;
11111;SDS011;5609;49.466;8.468;2024-03-08T10:49:31;15.10;;;13.50;;
11111;SDS011;5609;49.466;8.468;2024-03-08T10:52:02;14.37;;;12.87;;
11111;SDS011;5609;49.466;8.468;2024-03-08T10:54:34;14.40;;;12.90;;
11111;SDS011;5609;49.466;8.468;2024-03-08T10:57:05;14.50;;;13.00;;
11111;SDS011;5609;49.466;8.468;2024-03-08T10:59:33;14.40;;;12.90;;
11111;SDS011;5609;49.466;8.468;2024-03-08T11:02:02;15.93;;;14.07;;
11111;SDS011;5609;49.466;8.468;2024-03-08T11:04:30;15.80;;;14.10;;
11111;SDS011;5609;49.466;8.468;2024-03-08T11:07:00;15.13;;;13.53;;
11111;SDS011;5609;49.466;8.468;2024-03-08T11:09:32;15.67;;;14.07;;
11111;SDS011;5609;49.466;8.468;2024-03-08T11:12:19;15.37;;;13.77;;
11111;SDS011;5609;49.466;8.468;2024-03-08T11:14:48;15.50;;;13.90;;
11111;SDS011;5609;49.466;8.468;2024-03-08T11:17:20;15.77;;;14.10;;
11111;SDS011;5609;49.466;8.468;2024-03-08T11:19:47;15.33;;;13.73;;
11111;SDS011;5609;49.466;8.468;2024-03-08T11:22:22;15.90;;;14.30;;
11111;SDS011;5609;49.466;8.468;2024-03-08T11:24:59;16.03;;;13.87;;
11111;SDS011;5609;49.466;8.468;2024-03-08T11:27:33;14.33;;;12.93;;
11111;SDS011;5609;49.466;8.468;2024-03-08T11:30:04;14.37;;;12.90;;
11111;SDS011;5609;49.466;8.468;2024-03-08T11:32:36;15.13;;;13.53;;
11111;SDS011;5609;49.466;8.468;2024-03-08T11:35:05;14.97;;;13.17;;
11111;SDS011;5609;49.466;8.468;2024-03-08T11:37:35;14.77;;;13.13;;
11111;SDS011;5609;49.466;8.468;2024-03-08T11:40:06;13.87;;;12.40;;
11111;SDS011;5609;49.466;8.468;2024-03-08T11:42:43;14.63;;;13.13;;
11111;SDS011;5609;49.466;8.468;2024-03-08T11:45:13;14.70;;;13.07;;
11111;SDS011;5609;49.466;8.468;2024-03-08T11:47:42;15.87;;;13.37;;
11111;SDS011;5609;49.466;8.468;2024-03-08T11:50:11;14.03;;;12.63;;
11111;SDS011;5609;49.466;8.468;2024-03-08T11:52:40;15.03;;;13.43;;
11111;SDS011;5609;49.466;8.468;2024-03-08T11:55:07;14.83;;;13.33;;
11111;SDS011;5609;49.466;8.468;2024-03-08T11:57:35;15.33;;;13.73;;
11111;SDS011;5609;49.466;8.468;2024-03-08T12:00:02;15.10;;;13.50;;
11111;SDS011;5609;49.466;8.468;2024-03-08T12:02:32;14.43;;;12.93;;
11111;SDS011;5609;49.466;8.468;2024-03-08T12:05:01;14.20;;;12.70;;
11111;SDS011;5609;49.466;8.468;2024-03-08T12:07:29;15.60;;;14.00;;
11111;SDS011;5609;49.466;8.468;2024-03-08T12:10:18;15.20;;;13.63;;
11111;SDS011;5609;49.466;8.468;2024-03-08T12:12:46;14.87;;;13.17;;
11111;SDS011;5609;49.466;8.468;2024-03-08T12:15:16;15.17;;;13.57;;
11111;SDS011;5609;49.466;8.468;2024-03-08T12:17:44;15.27;;;13.77;;
11111;SDS011;5609;49.466;8.468;2024-03-08T12:20:14;15.37;;;13.80;;
11111;SDS011;5609;49.466;8.468;2024-03-08T12:22:47;15.13;;;13.63;;
11111;SDS011;5609;49.466;8.468;2024-03-08T12:25:14;13.03;;;11.63;;
11111;SDS011;5609;49.466;8.468;2024-03-08T12:27:43;14.93;;;11.13;;
11111;SDS011;5609;49.466;8.468;2024-03-08T12:30:20;14.80;;;11.90;;
11111;SDS011;5609;49.466;8.468;2024-03-08T12:32:52;14.67;;;13.07;;
11111;SDS011;5609;49.466;8.468;2024-03-08T12:35:23;13.07;;;11.23;;
11111;SDS011;5609;49.466;8.468;2024-03-08T12:37:52;13.07;;;11.77;;
11111;SDS011;5609;49.466;8.468;2024-03-08T12:40:26;12.57;;;10.97;;
11111;SDS011;5609;49.466;8.468;2024-03-08T12:42:59;15.00;;;11.97;;
11111;SDS011;5609;49.466;8.468;2024-03-08T12:45:26;14.57;;;13.00;;
11111;SDS011;5609;49.466;8.468;2024-03-08T12:47:53;15.67;;;14.03;;
11111;SDS011;5609;49.466;8.468;2024-03-08T12:50:21;15.83;;;14.23;;
11111;SDS011;5609;49.466;8.468;2024-03-08T12:52:50;15.00;;;13.43;;
11111;SDS011;5609;49.466;8.468;2024-03-08T12:55:19;15.53;;;13.93;;
11111;SDS011;5609;49.466;8.468;2024-03-08T12:57:45;15.23;;;13.73;;
11111;SDS011;5609;49.466;8.468;2024-03-08T13:00:15;14.40;;;13.00;;
11111;SDS011;5609;49.466;8.468;2024-03-08T13:02:45;14.60;;;13.10;;
11111;SDS011;5609;49.466;8.468;2024-03-08T13:05:12;14.27;;;12.83;;
11111;SDS011;5609;49.466;8.468;2024-03-08T13:07:39;15.10;;;13.50;;
11111;SDS011;5609;49.466;8.468;2024-03-08T13:10:10;14.93;;;13.43;;
11111;SDS011;5609;49.466;8.468;2024-03-08T13:12:39;15.50;;;14.00;;
11111;SDS011;5609;49.466;8.468;2024-03-08T13:15:07;14.43;;;13.03;;
11111;SDS011;5609;49.466;8.468;2024-03-08T13:17:37;15.10;;;13.50;;
11111;SDS011;5609;49.466;8.468;2024-03-08T13:20:06;14.77;;;13.27;;
11111;SDS011;5609;49.466;8.468;2024-03-08T13:22:34;14.83;;;13.33;;
11111;SDS011;5609;49.466;8.468;2024-03-08T13:25:00;14.80;;;13.40;;
11111;SDS011;5609;49.466;8.468;2024-03-08T13:27:27;15.60;;;14.00;;
11111;SDS011;5609;49.466;8.468;2024-03-08T13:29:54;15.20;;;13.70;;
11111;SDS011;5609;49.466;8.468;2024-03-08T13:32:21;15.10;;;13.60;;
11111;SDS011;5609;49.466;8.468;2024-03-08T13:34:50;14.77;;;13.27;;
11111;SDS011;5609;49.466;8.468;2024-03-08T13:37:17;14.70;;;13.30;;
11111;SDS011;5609;49.466;8.468;2024-03-08T13:39:44;15.50;;;14.00;;
11111;SDS011;5609;49.466;8.468;2024-03-08T13:42:11;15.30;;;13.70;;
11111;SDS011;5609;49.466;8.468;2024-03-08T13:44:43;15.10;;;13.53;;
11111;SDS011;5609;49.466;8.468;2024-03-08T13:47:10;15.57;;;14.07;;
11111;SDS011;5609;49.466;8.468;2024-03-08T13:49:38;13.77;;;12.37;;
11111;SDS011;5609;49.466;8.468;2024-03-08T13:52:06;15.23;;;13.63;;
11111;SDS011;5609;49.466;8.468;2024-03-08T13:54:34;14.90;;;13.40;;
11111;SDS011;5609;49.466;8.468;2024-03-08T13:57:01;14.63;;;13.17;;
11111;SDS011;5609;49.466;8.468;2024-03-08T13:59:29;14.80;;;13.37;;
11111;SDS011;5609;49.466;8.468;2024-03-08T14:01:57;15.07;;;13.67;;
11111;SDS011;5609;49.466;8.468;2024-03-08T14:04:24;14.70;;;13.27;;
11111;SDS011;5609;49.466;8.468;2024-03-08T14:06:52;14.80;;;13.30;;
11111;SDS011;5609;49.466;8.468;2024-03-08T14:09:23;15.17;;;13.67;;
11111;SDS011;5609;49.466;8.468;2024-03-08T14:11:50;14.77;;;13.27;;
11111;SDS011;5609;49.466;8.468;2024-03-08T14:14:19;15.27;;;13.77;;
11111;SDS011;5609;49.466;8.468;2024-03-08T14:16:48;15.13;;;13.73;;
11111;SDS011;5609;49.466;8.468;2024-03-08T14:19:17;14.93;;;13.50;;
11111;SDS011;5609;49.466;8.468;2024-03-08T14:21:44;14.80;;;13.30;;
11111;SDS011;5609;49.466;8.468;2024-03-08T14:24:12;14.63;;;13.23;;
11111;SDS011;5609;49.466;8.468;2024-03-08T14:26:41;14.90;;;13.47;;
11111;SDS011;5609;49.466;8.468;2024-03-08T14:29:08;14.43;;;13.03;;
11111;SDS011;5609;49.466;8.468;2024-03-08T14:31:35;14.63;;;13.13;;
11111;SDS011;5609;49.466;8.468;2024-03-08T14:34:02;14.23;;;12.83;;
11111;SDS011;5609;49.466;8.468;2024-03-08T14:36:29;13.77;;;12.37;;
11111;SDS011;5609;49.466;8.468;2024-03-08T14:38:56;13.63;;;12.33;;
11111;SDS011;5609;49.466;8.468;2024-03-08T14:41:22;13.47;;;12.17;;